createdAt,value
2023-01-13T00:00:38.363Z,2.53
2023-01-13T00:03:05.692Z,2.58
2023-01-13T00:05:32.806Z,2.08
2023-01-13T00:07:59.933Z,2.25
2023-01-13T00:10:27.075Z,1.45
2023-01-13T00:12:54.259Z,2.83
2023-01-13T00:15:21.368Z,2.35
2023-01-13T00:17:48.847Z,1.30
2023-01-13T00:20:16.087Z,2.45
2023-01-13T00:22:43.246Z,1.83
2023-01-13T00:25:10.437Z,1.42
2023-01-13T00:27:37.670Z,1.55
2023-01-13T00:30:05.580Z,1.75
2023-01-13T00:32:32.987Z,2.75
2023-01-13T00:35:00.253Z,1.65
2023-01-13T00:37:27.377Z,1.25
2023-01-13T00:39:54.688Z,1.95
2023-01-13T00:42:40.836Z,1.70
2023-01-13T00:45:08.145Z,2.03
2023-01-13T00:47:35.298Z,1.73
2023-01-13T00:50:02.439Z,1.70
2023-01-13T00:52:29.619Z,2.05
2023-01-13T00:54:57.095Z,1.55
2023-01-13T00:57:24.269Z,2.58
2023-01-13T00:59:51.465Z,1.40
2023-01-13T01:02:18.657Z,2.45
2023-01-13T01:04:45.848Z,2.03
2023-01-13T01:07:12.925Z,1.65
2023-01-13T01:09:40.373Z,2.10
2023-01-13T01:12:07.661Z,2.53
2023-01-13T01:14:34.862Z,2.80
2023-01-13T01:17:02.096Z,2.17
2023-01-13T01:19:29.265Z,1.90
2023-01-13T01:21:56.406Z,1.75
2023-01-13T01:24:23.494Z,1.58
2023-01-13T01:26:50.744Z,1.92
2023-01-13T01:29:18.044Z,2.28
2023-01-13T01:31:45.364Z,1.55
2023-01-13T01:34:12.601Z,2.05
2023-01-13T01:36:40.151Z,2.85
2023-01-13T01:39:07.465Z,2.42
2023-01-13T01:41:35.737Z,2.15
2023-01-13T01:44:08.033Z,4.43
2023-01-13T01:46:45.030Z,2.50
2023-01-13T01:49:12.181Z,2.70
2023-01-13T01:51:42.842Z,1.92
2023-01-13T01:54:12.458Z,2.03
2023-01-13T01:56:41.578Z,2.05
2023-01-13T01:59:08.801Z,1.90
2023-01-13T02:01:36.122Z,2.80
2023-01-13T02:04:08.023Z,2.22
2023-01-13T02:06:35.249Z,3.65
2023-01-13T02:09:02.467Z,2.38
2023-01-13T02:11:49.961Z,2.13
2023-01-13T02:14:17.512Z,1.95
2023-01-13T02:16:59.532Z,2.20
2023-01-13T02:19:38.662Z,2.05
2023-01-13T02:22:14.799Z,3.20
2023-01-13T02:25:02.352Z,2.03
2023-01-13T02:27:29.711Z,2.25
2023-01-13T02:30:19.733Z,2.58
2023-01-13T02:32:49.604Z,1.60
2023-01-13T02:35:25.320Z,2.30
2023-01-13T02:37:52.563Z,2.45
2023-01-13T02:40:26.089Z,1.98
2023-01-13T02:43:17.869Z,2.35
2023-01-13T02:45:49.776Z,2.50
2023-01-13T02:48:17.872Z,2.75
2023-01-13T02:50:48.095Z,1.88
2023-01-13T02:53:25.112Z,2.10
2023-01-13T02:55:53.729Z,1.95
2023-01-13T02:58:23.437Z,2.90
2023-01-13T03:00:51.910Z,2.80
2023-01-13T03:03:19.409Z,2.38
2023-01-13T03:05:48.423Z,1.90
2023-01-13T03:08:15.742Z,3.00
2023-01-13T03:10:48.942Z,2.63
2023-01-13T03:13:28.138Z,3.60
2023-01-13T03:16:14.026Z,2.42
2023-01-13T03:18:50.067Z,1.85
2023-01-13T03:21:28.022Z,2.10
2023-01-13T03:23:55.741Z,2.38
2023-01-13T03:26:29.439Z,3.83
2023-01-13T03:29:07.479Z,2.47
2023-01-13T03:31:35.743Z,3.63
2023-01-13T03:34:05.256Z,1.85
2023-01-13T03:36:33.139Z,2.28
2023-01-13T03:39:03.678Z,3.10
2023-01-13T03:41:34.000Z,2.33
2023-01-13T03:44:24.220Z,3.63
2023-01-13T03:47:00.022Z,3.20
2023-01-13T03:49:32.797Z,2.25
2023-01-13T03:52:02.597Z,2.00
2023-01-13T03:54:31.066Z,3.40
2023-01-13T03:57:01.004Z,2.50
2023-01-13T03:59:31.333Z,2.72
2023-01-13T04:02:08.592Z,2.80
2023-01-13T04:04:39.291Z,2.33
2023-01-13T04:07:18.716Z,3.15
2023-01-13T04:09:50.835Z,2.75
2023-01-13T04:12:20.982Z,3.08
2023-01-13T04:14:48.359Z,2.47
2023-01-13T04:17:16.432Z,2.75
2023-01-13T04:19:43.577Z,2.25
2023-01-13T04:22:10.805Z,3.08
2023-01-13T04:24:37.873Z,2.38
2023-01-13T04:27:06.426Z,2.22
2023-01-13T04:29:33.564Z,2.53
2023-01-13T04:32:00.695Z,2.58
2023-01-13T04:34:28.564Z,3.60
2023-01-13T04:36:55.787Z,2.83
2023-01-13T04:39:22.967Z,2.58
2023-01-13T04:41:59.086Z,2.45
2023-01-13T04:44:27.137Z,2.17
2023-01-13T04:46:54.560Z,3.28
2023-01-13T04:49:21.821Z,4.32
2023-01-13T04:51:48.997Z,3.42
2023-01-13T04:54:16.256Z,2.83
2023-01-13T04:56:43.421Z,2.17
2023-01-13T04:59:11.363Z,2.50
2023-01-13T05:01:38.785Z,1.98
2023-01-13T05:04:06.285Z,2.42
2023-01-13T05:06:33.495Z,2.90
2023-01-13T05:09:00.704Z,1.63
2023-01-13T05:11:46.452Z,2.38
2023-01-13T05:14:32.561Z,1.50
2023-01-13T05:17:03.498Z,3.40
2023-01-13T05:19:40.818Z,1.83
2023-01-13T05:22:26.741Z,2.38
2023-01-13T05:25:12.800Z,2.70
2023-01-13T05:27:40.021Z,2.38
2023-01-13T05:30:07.399Z,2.00
2023-01-13T05:32:34.500Z,1.73
2023-01-13T05:35:01.646Z,1.52
2023-01-13T05:37:29.015Z,1.38
2023-01-13T05:40:14.676Z,2.38
2023-01-13T05:43:00.719Z,1.50
2023-01-13T05:45:27.870Z,2.28
2023-01-13T05:47:54.945Z,1.88
2023-01-13T05:50:22.027Z,2.08
2023-01-13T05:52:49.484Z,1.83
2023-01-13T05:55:16.641Z,1.70
2023-01-13T05:57:43.800Z,2.58
2023-01-13T06:00:11.201Z,2.03
2023-01-13T06:02:38.391Z,1.85
2023-01-13T06:05:05.755Z,2.70
2023-01-13T06:07:32.813Z,1.98
2023-01-13T06:09:59.961Z,1.17
2023-01-13T06:12:27.116Z,1.42
2023-01-13T06:14:54.285Z,2.17
2023-01-13T06:17:21.470Z,1.42
2023-01-13T06:19:48.537Z,1.10
2023-01-13T06:22:35.711Z,2.20
2023-01-13T06:25:02.851Z,1.27
2023-01-13T06:27:30.446Z,1.50
2023-01-13T06:29:57.584Z,1.13
2023-01-13T06:32:27.377Z,2.08
2023-01-13T06:34:58.831Z,1.80
2023-01-13T06:37:26.571Z,1.50
2023-01-13T06:39:58.120Z,2.15
2023-01-13T06:42:47.828Z,2.28
2023-01-13T06:45:15.299Z,1.80
2023-01-13T06:47:43.391Z,1.05
2023-01-13T06:50:10.939Z,1.50
2023-01-13T06:52:38.019Z,1.30
2023-01-13T06:55:05.341Z,1.30
2023-01-13T06:57:32.516Z,1.38
2023-01-13T06:59:59.753Z,1.08
2023-01-13T07:02:28.192Z,1.73
2023-01-13T07:04:55.491Z,1.55
2023-01-13T07:07:22.597Z,1.02
2023-01-13T07:09:49.678Z,1.45
2023-01-13T07:12:16.742Z,0.68
2023-01-13T07:15:02.519Z,1.38
2023-01-13T07:17:29.603Z,1.15
2023-01-13T07:19:58.021Z,1.60
2023-01-13T07:22:25.156Z,1.38
2023-01-13T07:24:52.267Z,1.88
2023-01-13T07:27:19.416Z,1.73
2023-01-13T07:29:46.669Z,1.23
2023-01-13T07:32:14.345Z,1.15
2023-01-13T07:34:41.495Z,1.58
2023-01-13T07:37:08.729Z,1.38
2023-01-13T07:39:35.929Z,1.45
2023-01-13T07:42:21.691Z,1.75
2023-01-13T07:44:48.827Z,1.30
2023-01-13T07:47:15.885Z,1.48
2023-01-13T07:49:43.001Z,1.38
2023-01-13T07:52:10.089Z,1.48
2023-01-13T07:54:40.932Z,2.10
2023-01-13T07:57:08.961Z,2.05
2023-01-13T07:59:36.146Z,1.17
2023-01-13T08:02:03.474Z,1.27
2023-01-13T08:04:30.767Z,1.30
2023-01-13T08:06:57.909Z,2.05
2023-01-13T08:09:25.063Z,0.90
2023-01-13T08:12:13.282Z,1.38
2023-01-13T08:14:40.481Z,2.10
2023-01-13T08:17:10.731Z,1.60
2023-01-13T08:19:37.845Z,1.35
2023-01-13T08:22:05.083Z,2.35
2023-01-13T08:24:32.249Z,1.50
2023-01-13T08:26:59.657Z,1.20
2023-01-13T08:29:26.768Z,1.40
2023-01-13T08:31:53.831Z,1.45
2023-01-13T08:34:21.035Z,1.20
2023-01-13T08:36:50.018Z,1.30
2023-01-13T08:39:18.584Z,1.38
2023-01-13T08:41:58.720Z,2.63
2023-01-13T08:44:30.221Z,2.13
2023-01-13T08:46:57.479Z,2.17
2023-01-13T08:49:24.881Z,1.13
2023-01-13T08:51:52.672Z,1.45
2023-01-13T08:54:20.145Z,2.20
2023-01-13T08:56:47.406Z,1.15
2023-01-13T08:59:15.137Z,1.10
2023-01-13T09:01:42.678Z,1.13
2023-01-13T09:04:20.199Z,2.47
2023-01-13T09:06:47.835Z,1.85
2023-01-13T09:09:15.619Z,1.85
2023-01-13T09:12:02.587Z,2.92
2023-01-13T09:14:30.748Z,1.42
2023-01-13T09:16:58.362Z,1.30
2023-01-13T09:19:25.682Z,2.20
2023-01-13T09:21:52.902Z,1.85
2023-01-13T09:24:20.470Z,2.25
2023-01-13T09:26:47.984Z,1.08
2023-01-13T09:29:15.503Z,1.80
2023-01-13T09:31:44.229Z,2.25
2023-01-13T09:34:33.707Z,2.13
2023-01-13T09:37:01.303Z,1.88
2023-01-13T09:39:33.031Z,1.60
2023-01-13T09:42:22.678Z,1.90
2023-01-13T09:44:59.062Z,1.60
2023-01-13T09:47:40.953Z,1.10
2023-01-13T09:50:26.528Z,1.23
2023-01-13T09:52:53.812Z,1.52
2023-01-13T09:55:26.301Z,1.65
2023-01-13T09:57:53.418Z,1.75
2023-01-13T10:00:24.665Z,2.42
2023-01-13T10:02:58.150Z,2.40
2023-01-13T10:05:39.045Z,2.20
2023-01-13T10:08:11.321Z,1.48
2023-01-13T10:10:41.480Z,1.75
2023-01-13T10:13:20.734Z,2.25
2023-01-13T10:15:53.782Z,1.85
2023-01-13T10:18:28.847Z,2.08
2023-01-13T10:21:13.753Z,1.52
2023-01-13T10:23:50.853Z,1.80
2023-01-13T10:26:27.858Z,1.88
2023-01-13T10:28:55.695Z,1.58
2023-01-13T10:31:23.501Z,1.45
2023-01-13T10:33:58.315Z,1.65
2023-01-13T10:36:25.439Z,2.03
2023-01-13T10:38:52.731Z,2.53
2023-01-13T10:41:24.063Z,1.75
2023-01-13T10:44:07.219Z,2.40
2023-01-13T10:46:50.329Z,2.25
2023-01-13T10:49:29.012Z,1.90
2023-01-13T10:51:56.203Z,1.50
2023-01-13T10:54:24.798Z,1.40
2023-01-13T10:57:11.947Z,2.38
2023-01-13T10:59:39.039Z,1.50
2023-01-13T11:02:24.241Z,2.08
2023-01-13T11:04:55.281Z,1.80
2023-01-13T11:07:30.370Z,1.15
2023-01-13T11:10:07.152Z,2.42
2023-01-13T11:12:35.653Z,1.80
2023-01-13T11:15:04.920Z,1.88
2023-01-13T11:17:32.099Z,1.70
2023-01-13T11:20:04.878Z,1.30
2023-01-13T11:22:38.251Z,1.60
2023-01-13T11:25:06.886Z,2.00
2023-01-13T11:27:43.262Z,1.77
2023-01-13T11:30:10.336Z,1.73
2023-01-13T11:32:44.890Z,1.25
2023-01-13T11:35:17.097Z,1.52
2023-01-13T11:37:50.290Z,1.80
2023-01-13T11:40:20.733Z,1.65
2023-01-13T11:42:59.399Z,1.55
2023-01-13T11:45:46.906Z,1.85
2023-01-13T11:48:19.328Z,1.35
2023-01-13T11:50:51.009Z,2.47
2023-01-13T11:53:30.397Z,1.50
2023-01-13T11:56:16.098Z,1.90
2023-01-13T11:58:50.956Z,1.83
2023-01-13T12:01:27.538Z,2.17
2023-01-13T12:04:21.027Z,1.80
2023-01-13T12:06:53.223Z,2.05
2023-01-13T12:09:36.823Z,2.28
2023-01-13T12:12:27.673Z,1.95
2023-01-13T12:15:00.937Z,1.20
2023-01-13T12:17:47.936Z,1.80
2023-01-13T12:20:33.936Z,1.65
2023-01-13T12:23:03.217Z,1.75
2023-01-13T12:25:33.136Z,1.80
2023-01-13T12:28:03.079Z,1.40
2023-01-13T12:30:37.105Z,1.30
2023-01-13T12:33:25.316Z,2.33
2023-01-13T12:36:00.222Z,1.95
2023-01-13T12:38:38.186Z,1.33
2023-01-13T12:41:05.248Z,1.20
2023-01-13T12:43:51.991Z,1.52
2023-01-13T12:46:22.035Z,1.20
2023-01-13T12:48:56.592Z,1.20
2023-01-13T12:51:23.696Z,1.10
2023-01-13T12:53:51.262Z,1.20
2023-01-13T12:56:22.837Z,1.45
2023-01-13T12:58:50.029Z,1.20
2023-01-13T13:01:18.385Z,1.20
2023-01-13T13:04:05.188Z,1.38
2023-01-13T13:06:32.976Z,0.98
2023-01-13T13:09:03.891Z,1.00
2023-01-13T13:11:58.222Z,1.23
2023-01-13T13:14:40.564Z,1.10
2023-01-13T13:17:26.574Z,1.13
2023-01-13T13:19:53.689Z,1.02
2023-01-13T13:22:20.925Z,0.82
2023-01-13T13:24:50.816Z,1.35
2023-01-13T13:27:19.338Z,1.27
2023-01-13T13:29:49.525Z,0.85
2023-01-13T13:32:31.734Z,1.38
2023-01-13T13:37:32.384Z,2.05
2023-01-13T13:40:21.537Z,1.25
2023-01-13T13:43:12.247Z,1.02
2023-01-13T13:46:09.035Z,0.70
2023-01-13T13:48:37.309Z,1.13
2023-01-13T13:51:17.745Z,0.82
2023-01-13T13:53:44.950Z,1.65
2023-01-13T13:56:21.738Z,0.95
2023-01-13T13:58:49.359Z,1.38
2023-01-13T14:01:27.866Z,1.42
2023-01-13T14:04:12.154Z,0.80
2023-01-13T14:06:39.639Z,1.08
2023-01-13T14:09:16.076Z,0.52
2023-01-13T14:11:43.237Z,1.17
2023-01-13T14:14:14.437Z,0.90
2023-01-13T14:16:41.784Z,0.90
2023-01-13T14:19:28.127Z,1.30
2023-01-13T14:21:55.572Z,0.80
2023-01-13T14:24:24.750Z,1.10
2023-01-13T14:26:53.174Z,1.50
2023-01-13T14:29:23.100Z,1.40
2023-01-13T14:31:51.879Z,1.38
2023-01-13T14:34:32.016Z,1.63
2023-01-13T14:37:03.794Z,0.90
2023-01-13T14:39:39.055Z,0.85
2023-01-13T14:42:12.010Z,1.52
2023-01-13T14:44:44.498Z,1.38
2023-01-13T14:47:23.468Z,1.05
2023-01-13T14:50:02.655Z,0.75
2023-01-13T14:52:34.560Z,1.10
2023-01-13T14:55:04.912Z,0.90
2023-01-13T14:57:32.832Z,1.13
2023-01-13T15:00:03.979Z,1.02
2023-01-13T15:02:31.512Z,1.10
2023-01-13T15:05:18.854Z,0.98
2023-01-13T15:07:51.991Z,0.82
2023-01-13T15:10:20.179Z,0.88
2023-01-13T15:12:50.427Z,0.98
2023-01-13T15:15:20.700Z,0.80
2023-01-13T15:17:47.852Z,0.70
2023-01-13T15:20:15.507Z,0.80
2023-01-13T15:22:42.841Z,0.77
2023-01-13T15:25:10.421Z,0.75
2023-01-13T15:27:38.119Z,1.25
2023-01-13T15:30:14.607Z,0.60
2023-01-13T15:32:41.884Z,1.00
2023-01-13T15:35:10.272Z,0.82
2023-01-13T15:37:37.667Z,1.15
2023-01-13T15:40:05.020Z,1.35
2023-01-13T15:42:50.892Z,1.60
2023-01-13T15:45:36.926Z,1.15
2023-01-13T15:48:04.092Z,0.68
2023-01-13T15:50:31.193Z,1.08
2023-01-13T15:52:58.754Z,0.70
2023-01-13T15:55:25.853Z,1.30
2023-01-13T15:57:52.981Z,1.25
2023-01-13T16:00:21.631Z,0.82
2023-01-13T16:02:49.624Z,1.00
2023-01-13T16:05:16.983Z,1.13
2023-01-13T16:07:44.103Z,1.67
2023-01-13T16:10:24.704Z,1.60
2023-01-13T16:12:51.929Z,1.05
2023-01-13T16:15:22.216Z,0.60
2023-01-13T16:17:53.743Z,0.80
2023-01-13T16:20:20.901Z,1.20
2023-01-13T16:22:48.133Z,1.15
2023-01-13T16:25:19.727Z,0.90
2023-01-13T16:27:47.015Z,1.00
2023-01-13T16:30:24.177Z,1.33
2023-01-13T16:32:51.432Z,0.93
2023-01-13T16:35:19.084Z,1.15
2023-01-13T16:37:50.571Z,1.95
2023-01-13T16:40:24.144Z,1.10
2023-01-13T16:42:51.530Z,1.17
2023-01-13T16:45:19.010Z,1.38
2023-01-13T16:47:46.155Z,1.02
2023-01-13T16:50:28.513Z,0.95
2023-01-13T16:52:55.697Z,1.70
2023-01-13T16:55:22.925Z,1.50
2023-01-13T16:57:50.018Z,1.10
2023-01-13T17:00:17.495Z,1.40
2023-01-13T17:02:44.646Z,0.98
2023-01-13T17:05:12.576Z,1.00
2023-01-13T17:07:40.863Z,1.10
2023-01-13T17:10:08.962Z,1.17
2023-01-13T17:12:36.087Z,1.13
2023-01-13T17:15:03.209Z,1.65
2023-01-13T17:17:30.461Z,1.60
2023-01-13T17:19:57.610Z,0.70
2023-01-13T17:22:24.797Z,0.65
2023-01-13T17:24:51.923Z,1.42
2023-01-13T17:27:21.248Z,0.90
2023-01-13T17:29:48.713Z,1.08
2023-01-13T17:32:20.053Z,1.02
2023-01-13T17:34:47.410Z,1.05
2023-01-13T17:37:14.924Z,1.80
2023-01-13T17:39:44.400Z,1.08
2023-01-13T17:42:12.259Z,1.73
2023-01-13T17:44:39.537Z,0.90
2023-01-13T17:47:06.961Z,1.08
2023-01-13T17:49:34.159Z,0.68
2023-01-13T17:52:01.578Z,0.82
2023-01-13T17:54:32.830Z,1.00
2023-01-13T17:57:00.209Z,0.93
2023-01-13T17:59:29.758Z,0.85
2023-01-13T18:01:56.926Z,0.80
2023-01-13T18:04:27.525Z,0.50
2023-01-13T18:06:56.718Z,0.82
2023-01-13T18:09:23.966Z,0.73
2023-01-13T18:11:51.191Z,0.90
2023-01-13T18:14:18.913Z,1.00
2023-01-13T18:16:46.099Z,1.10
2023-01-13T18:19:31.805Z,1.52
2023-01-13T18:22:18.118Z,1.25
2023-01-13T18:25:04.003Z,1.25
2023-01-13T18:27:32.876Z,2.05
2023-01-13T18:30:01.159Z,1.42
2023-01-13T18:32:32.793Z,1.08
2023-01-13T18:35:05.719Z,0.93
2023-01-13T18:37:35.875Z,0.98
2023-01-13T18:40:03.561Z,1.17
2023-01-13T18:42:49.373Z,1.15
2023-01-13T18:45:16.452Z,1.40
2023-01-13T18:47:43.583Z,1.33
2023-01-13T18:50:14.350Z,1.27
2023-01-13T18:52:41.727Z,1.05
2023-01-13T18:55:09.049Z,1.20
2023-01-13T18:57:40.402Z,1.63
2023-01-13T19:00:08.890Z,1.35
2023-01-13T19:02:36.163Z,1.17
2023-01-13T19:05:03.715Z,1.83
2023-01-13T19:07:32.048Z,1.38
2023-01-13T19:10:04.223Z,1.27
2023-01-13T19:12:33.586Z,1.13
2023-01-13T19:15:01.621Z,1.45
2023-01-13T19:17:31.621Z,1.17
2023-01-13T19:19:59.406Z,2.15
2023-01-13T19:22:30.933Z,1.13
2023-01-13T19:24:58.830Z,1.77
2023-01-13T19:27:27.450Z,0.85
2023-01-13T19:29:57.508Z,1.15
2023-01-13T19:32:24.815Z,0.90
2023-01-13T19:34:53.200Z,1.08
2023-01-13T19:37:20.357Z,0.90
2023-01-13T19:39:47.751Z,0.75
2023-01-13T19:42:33.628Z,0.90
2023-01-13T19:45:19.603Z,0.82
2023-01-13T19:47:46.998Z,0.80
2023-01-13T19:50:14.716Z,0.75
2023-01-13T19:52:44.843Z,1.30
2023-01-13T19:55:12.611Z,0.82
2023-01-13T19:57:40.409Z,1.40
2023-01-13T20:00:08.464Z,1.27
2023-01-13T20:02:36.970Z,1.25
2023-01-13T20:05:06.492Z,0.93
2023-01-13T20:07:35.144Z,1.40
2023-01-13T20:10:02.437Z,1.83
2023-01-13T20:12:29.912Z,1.17
2023-01-13T20:14:57.438Z,0.80
2023-01-13T20:17:26.356Z,1.13
2023-01-13T20:19:53.744Z,0.80
2023-01-13T20:22:21.194Z,0.85
2023-01-13T20:24:52.142Z,1.20
2023-01-13T20:27:19.244Z,0.80
2023-01-13T20:29:46.338Z,1.25
2023-01-13T20:32:13.445Z,0.93
2023-01-13T20:34:40.577Z,1.20
2023-01-13T20:37:07.772Z,2.50
2023-01-13T20:39:36.165Z,1.08
2023-01-13T20:42:21.942Z,1.02
2023-01-13T20:44:49.576Z,1.48
2023-01-13T20:47:17.025Z,1.80
2023-01-13T20:49:44.142Z,1.20
2023-01-13T20:52:11.297Z,0.90
2023-01-13T20:54:39.004Z,1.10
2023-01-13T20:57:07.656Z,1.05
2023-01-13T20:59:34.864Z,0.90
2023-01-13T21:02:02.104Z,1.35
2023-01-13T21:04:29.466Z,1.40
2023-01-13T21:06:56.553Z,1.55
2023-01-13T21:09:24.482Z,0.70
2023-01-13T21:12:10.760Z,0.98
2023-01-13T21:14:56.934Z,0.80
2023-01-13T21:17:43.216Z,1.20
2023-01-13T21:20:11.450Z,1.85
2023-01-13T21:22:39.044Z,1.48
2023-01-13T21:25:06.510Z,1.67
2023-01-13T21:27:34.652Z,1.60
2023-01-13T21:30:01.836Z,1.20
2023-01-13T21:32:29.303Z,1.55
2023-01-13T21:34:58.837Z,1.00
2023-01-13T21:37:26.274Z,1.02
2023-01-13T21:39:53.414Z,1.52
2023-01-13T21:42:39.365Z,1.83
2023-01-13T21:45:25.473Z,1.48
2023-01-13T21:47:52.639Z,1.00
2023-01-13T21:50:21.138Z,1.25
2023-01-13T21:52:49.331Z,1.02
2023-01-13T21:55:17.259Z,1.45
2023-01-13T21:57:51.868Z,0.77
2023-01-13T22:00:20.411Z,0.98
2023-01-13T22:02:48.068Z,1.10
2023-01-13T22:05:16.325Z,0.60
2023-01-13T22:07:43.528Z,1.13
2023-01-13T22:10:14.849Z,1.10
2023-01-13T22:12:43.225Z,0.70
2023-01-13T22:15:11.480Z,0.80
2023-01-13T22:17:38.689Z,0.95
2023-01-13T22:20:06.133Z,1.00
2023-01-13T22:22:36.752Z,0.70
2023-01-13T22:25:09.033Z,1.05
2023-01-13T22:27:42.279Z,0.73
2023-01-13T22:30:14.220Z,1.13
2023-01-13T22:32:41.439Z,1.50
2023-01-13T22:35:09.721Z,2.35
2023-01-13T22:37:36.974Z,1.15
2023-01-13T22:40:08.048Z,1.17
2023-01-13T22:42:38.545Z,0.90
2023-01-13T22:45:07.098Z,1.58
2023-01-13T22:47:34.525Z,1.10
2023-01-13T22:50:01.682Z,0.88
2023-01-13T22:52:29.021Z,2.00
2023-01-13T22:54:56.097Z,1.48
2023-01-13T22:57:23.931Z,1.08
2023-01-13T22:59:51.303Z,1.17
2023-01-13T23:02:18.400Z,0.95
2023-01-13T23:04:45.558Z,1.73
2023-01-13T23:07:12.780Z,2.08
2023-01-13T23:09:39.951Z,1.10
2023-01-13T23:12:07.107Z,1.35
2023-01-13T23:14:34.285Z,1.15
2023-01-13T23:17:01.502Z,2.30
2023-01-13T23:19:28.985Z,0.90
2023-01-13T23:21:56.130Z,1.50
2023-01-13T23:24:25.975Z,1.75
2023-01-13T23:26:53.086Z,1.27
2023-01-13T23:29:20.327Z,1.30
2023-01-13T23:31:47.925Z,1.02
2023-01-13T23:34:15.504Z,1.20
2023-01-13T23:36:43.773Z,1.38
2023-01-13T23:39:10.951Z,1.30
2023-01-13T23:41:38.374Z,0.80
2023-01-13T23:44:06.931Z,0.77
2023-01-13T23:46:35.175Z,2.58
2023-01-13T23:49:03.468Z,1.10
2023-01-13T23:51:31.128Z,1.30
2023-01-13T23:53:59.218Z,1.80
2023-01-13T23:56:28.187Z,1.50
2023-01-13T23:58:55.573Z,0.98
